Time;durP1;ratioP1;P1;durP2;ratioP2;P2;SDS_P1;SDS_P2;PMS_P1;PMS_P2;Temp;Humidity;BMP_temperature;BMP_pressure;BME280_temperature;BME280_humidity;BME280_pressure;Samples;Min_cycle;Max_cycle;Signal;HPM_P1;HPM_P2
2024/01/28 00:00:36;;;;;;;13.67;5.20;;;0.50;98.00;;;;;;5033164;28;20482;-67
2024/01/28 00:03:05;;;;;;;17.90;5.90;;;0.50;98.00;;;;;;5032123;28;20808;-67
2024/01/28 00:05:32;;;;;;;13.20;6.13;;;0.50;98.00;;;;;;5032970;28;20490;-67
2024/01/28 00:08:07;;;;;;;12.00;5.53;;;0.50;98.00;;;;;;5033277;28;20461;-67
2024/01/28 00:10:36;;;;;;;17.80;6.27;;;0.50;98.00;;;;;;5033565;28;20876;-67
2024/01/28 00:13:03;;;;;;;15.23;5.67;;;0.40;98.00;;;;;;5032881;28;20505;-67
2024/01/28 00:15:30;;;;;;;15.40;6.90;;;0.40;98.00;;;;;;5032659;28;20466;-67
2024/01/28 00:18:00;;;;;;;11.90;5.90;;;0.50;98.00;;;;;;5032709;28;20458;-67
2024/01/28 00:20:27;;;;;;;13.03;6.80;;;0.40;98.00;;;;;;5032913;28;20459;-67
2024/01/28 00:22:55;;;;;;;14.73;5.77;;;0.60;98.00;;;;;;5032263;28;20472;-67
2024/01/28 00:25:22;;;;;;;14.90;5.30;;;0.60;98.00;;;;;;5031206;28;20517;-67
2024/01/28 00:27:51;;;;;;;16.33;6.23;;;0.60;98.00;;;;;;5032622;28;20445;-66
2024/01/28 00:30:18;;;;;;;13.43;5.33;;;0.40;98.00;;;;;;5032754;28;20470;-67
2024/01/28 00:32:45;;;;;;;15.90;6.03;;;0.30;98.00;;;;;;5032753;28;20461;-67
2024/01/28 00:35:13;;;;;;;19.90;6.40;;;0.20;98.00;;;;;;5032696;28;20470;-67
2024/01/28 00:37:41;;;;;;;17.10;6.57;;;0.20;98.00;;;;;;5014813;28;20459;-67
2024/01/28 00:40:09;;;;;;;15.70;5.67;;;0.20;98.00;;;;;;5032298;28;20443;-67
2024/01/28 00:42:36;;;;;;;13.10;5.60;;;0.20;98.00;;;;;;5032182;28;20874;-67
2024/01/28 00:45:05;;;;;;;15.90;6.10;;;0.30;98.00;;;;;;5030525;28;20458;-67
2024/01/28 00:47:32;;;;;;;16.00;7.30;;;0.30;98.00;;;;;;5032305;28;20869;-67
2024/01/28 00:49:59;;;;;;;11.90;5.50;;;0.40;98.00;;;;;;5032046;28;20855;-67
2024/01/28 00:52:26;;;;;;;11.10;5.83;;;0.40;98.00;;;;;;5031913;28;20454;-67
2024/01/28 00:54:56;;;;;;;12.77;5.93;;;0.30;98.00;;;;;;5031815;28;20455;-67
2024/01/28 00:57:23;;;;;;;24.23;6.97;;;0.30;98.00;;;;;;5031647;28;20537;-67
2024/01/28 00:59:51;;;;;;;13.10;5.97;;;0.10;98.00;;;;;;5031883;28;20453;-67
2024/01/28 01:02:19;;;;;;;16.70;7.43;;;0.10;98.00;;;;;;5030578;28;20466;-67
2024/01/28 01:04:46;;;;;;;13.63;6.73;;;0.00;98.00;;;;;;5031880;28;20951;-67
2024/01/28 01:07:13;;;;;;;15.80;6.90;;;0.00;98.00;;;;;;5031679;28;20481;-67
2024/01/28 01:09:41;;;;;;;15.73;6.50;;;0.20;98.00;;;;;;5031508;28;20728;-67
2024/01/28 01:12:08;;;;;;;12.90;6.20;;;0.30;98.00;;;;;;5031711;28;20857;-67
2024/01/28 01:14:37;;;;;;;15.10;6.30;;;0.10;98.00;;;;;;5031621;28;20458;-67
2024/01/28 01:17:05;;;;;;;18.13;6.33;;;0.10;98.00;;;;;;5031566;28;20469;-67
2024/01/28 01:19:33;;;;;;;19.00;6.60;;;0.20;98.00;;;;;;5031530;28;20512;-67
2024/01/28 01:22:02;;;;;;;12.10;5.50;;;0.10;98.00;;;;;;5031507;28;20470;-67
2024/01/28 01:24:29;;;;;;;15.43;5.30;;;0.10;98.00;;;;;;5031388;28;20473;-67
2024/01/28 01:26:56;;;;;;;11.63;4.20;;;0.10;98.00;;;;;;5031655;28;20831;-67
2024/01/28 01:29:23;;;;;;;11.33;4.97;;;0.00;98.00;;;;;;5031252;28;20886;-67
2024/01/28 01:31:51;;;;;;;8.37;4.60;;;0.00;98.00;;;;;;5031433;28;20508;-67
2024/01/28 01:34:18;;;;;;;6.70;3.20;;;0.10;98.00;;;;;;5031040;28;20458;-67
2024/01/28 01:36:49;;;;;;;7.57;3.70;;;0.10;98.00;;;;;;5031488;28;20457;-67
2024/01/28 01:39:16;;;;;;;7.03;3.90;;;0.20;98.00;;;;;;5030746;28;20462;-67
2024/01/28 01:41:44;;;;;;;9.53;4.23;;;0.30;98.00;;;;;;5031412;28;20483;-67
2024/01/28 01:44:11;;;;;;;10.83;3.93;;;0.30;98.00;;;;;;5031115;28;20493;-67
2024/01/28 01:46:39;;;;;;;10.10;3.97;;;0.40;98.00;;;;;;5031346;28;20482;-67
2024/01/28 01:49:06;;;;;;;8.80;3.60;;;0.40;98.00;;;;;;5031037;28;20466;-67
2024/01/28 01:51:34;;;;;;;8.73;3.80;;;0.40;98.00;;;;;;5031135;28;20881;-67
2024/01/28 01:54:03;;;;;;;9.27;3.83;;;0.30;98.00;;;;;;5031064;28;20520;-67
2024/01/28 01:56:34;;;;;;;12.33;4.20;;;0.20;98.00;;;;;;5030226;28;20925;-67
2024/01/28 01:59:02;;;;;;;10.97;4.80;;;0.20;98.00;;;;;;5030893;28;20454;-67
2024/01/28 02:01:30;;;;;;;8.40;4.30;;;0.20;98.00;;;;;;5030952;28;20626;-67
2024/01/28 02:03:58;;;;;;;10.50;4.20;;;0.30;98.00;;;;;;5030339;28;20450;-67
2024/01/28 02:06:27;;;;;;;9.73;3.93;;;0.30;98.00;;;;;;5029750;28;21073;-67
2024/01/28 02:08:55;;;;;;;12.10;4.30;;;0.10;98.00;;;;;;5030778;28;20490;-67
2024/01/28 02:11:24;;;;;;;10.03;4.33;;;0.00;98.00;;;;;;5031164;28;20454;-67
2024/01/28 02:13:51;;;;;;;7.40;3.80;;;0.10;98.00;;;;;;5030071;28;20468;-66
2024/01/28 02:16:18;;;;;;;8.57;3.97;;;0.20;98.00;;;;;;5029585;28;20476;-67
2024/01/28 02:18:46;;;;;;;9.73;4.07;;;0.20;98.00;;;;;;5029991;28;20824;-67
2024/01/28 02:21:13;;;;;;;9.00;4.07;;;0.20;98.00;;;;;;5031183;28;20461;-67
2024/01/28 02:23:42;;;;;;;11.37;3.97;;;0.20;98.00;;;;;;5031128;28;20886;-67
2024/01/28 02:26:09;;;;;;;13.33;4.20;;;0.00;98.00;;;;;;5030703;28;20492;-67
2024/01/28 02:31:04;;;;;;;10.03;3.80;;;0.00;98.00;;;;;;4989640;28;20717;-68
2024/01/28 02:33:31;;;;;;;5.60;3.30;;;-0.10;98.00;;;;;;4991375;28;20501;-66
2024/01/28 02:35:59;;;;;;;11.40;4.13;;;-0.10;98.00;;;;;;4991411;28;20459;-65
2024/01/28 02:38:26;;;;;;;7.13;3.13;;;0.00;98.00;;;;;;4991157;28;20526;-66
2024/01/28 02:40:55;;;;;;;10.47;4.70;;;-0.10;98.00;;;;;;4991035;28;20456;-66
2024/01/28 02:43:22;;;;;;;6.60;3.80;;;-0.10;98.00;;;;;;4991160;28;20459;-65
2024/01/28 02:45:49;;;;;;;8.10;3.53;;;-0.30;98.00;;;;;;4991049;28;20503;-65
2024/01/28 02:48:17;;;;;;;8.80;3.73;;;-0.30;98.00;;;;;;4973674;28;20952;-65
2024/01/28 02:50:44;;;;;;;7.23;3.80;;;-0.20;98.00;;;;;;4991233;28;20463;-66
2024/01/28 02:53:11;;;;;;;8.77;4.17;;;-0.20;98.00;;;;;;4991120;28;20459;-65
2024/01/28 02:55:38;;;;;;;13.23;4.40;;;-0.20;98.00;;;;;;4991278;28;20502;-65
2024/01/28 02:58:07;;;;;;;11.00;4.57;;;-0.30;98.00;;;;;;4991170;28;20841;-66
2024/01/28 03:00:35;;;;;;;8.13;3.60;;;-0.40;98.00;;;;;;4991498;28;20669;-66
2024/01/28 03:03:03;;;;;;;8.90;4.03;;;-0.50;98.00;;;;;;4990465;28;20455;-66
2024/01/28 03:05:30;;;;;;;7.80;3.40;;;-0.50;98.00;;;;;;4991402;28;20510;-65
2024/01/28 03:07:57;;;;;;;7.90;4.00;;;-0.50;98.00;;;;;;4994185;28;21004;-65
2024/01/28 03:10:34;;;;;;;9.53;4.03;;;-0.40;98.00;;;;;;4995176;28;20462;-65
2024/01/28 03:13:01;;;;;;;7.47;3.77;;;-0.30;98.00;;;;;;4995025;28;20462;-65
2024/01/28 03:15:30;;;;;;;10.03;4.13;;;-0.10;98.00;;;;;;4995077;28;20458;-65
2024/01/28 03:17:57;;;;;;;11.20;3.87;;;-0.20;98.00;;;;;;4994521;28;20452;-65
2024/01/28 03:20:25;;;;;;;9.27;4.57;;;-0.20;98.00;;;;;;4994517;28;20460;-65
2024/01/28 03:22:52;;;;;;;11.83;4.43;;;-0.20;98.00;;;;;;4994363;28;20562;-65
2024/01/28 03:25:19;;;;;;;10.97;4.77;;;-0.30;98.00;;;;;;4977105;28;20455;-65
2024/01/28 03:27:47;;;;;;;11.30;4.63;;;-0.30;98.00;;;;;;4976791;28;20488;-65
2024/01/28 03:30:17;;;;;;;11.30;4.93;;;-0.30;98.00;;;;;;4993623;28;20499;-66
2024/01/28 03:32:46;;;;;;;11.97;4.33;;;-0.30;98.00;;;;;;4977373;28;20499;-66
2024/01/28 03:35:13;;;;;;;10.27;4.17;;;-0.30;98.00;;;;;;4993909;28;20529;-65
2024/01/28 03:37:40;;;;;;;10.67;4.07;;;-0.10;98.00;;;;;;4993980;28;20460;-66
2024/01/28 03:40:09;;;;;;;9.83;4.27;;;-0.10;98.00;;;;;;4994011;28;20460;-65
2024/01/28 03:42:36;;;;;;;7.23;3.90;;;-0.10;98.00;;;;;;4993790;28;20859;-65
2024/01/28 03:45:04;;;;;;;8.70;3.93;;;-0.10;98.00;;;;;;4976672;28;20529;-66
2024/01/28 03:47:32;;;;;;;8.07;3.70;;;-0.10;98.00;;;;;;4993926;28;20498;-65
2024/01/28 03:50:00;;;;;;;9.10;4.47;;;-0.10;98.00;;;;;;4993802;28;20730;-65
2024/01/28 03:52:27;;;;;;;10.97;4.23;;;-0.20;98.00;;;;;;4993942;28;20448;-65
2024/01/28 03:54:54;;;;;;;10.27;4.50;;;-0.10;98.00;;;;;;4993988;28;20831;-65
2024/01/28 03:57:21;;;;;;;12.73;4.30;;;-0.10;98.00;;;;;;4993849;28;20449;-65
2024/01/28 03:59:49;;;;;;;7.93;3.90;;;-0.10;98.00;;;;;;4993711;28;20448;-65
2024/01/28 04:02:16;;;;;;;16.17;4.27;;;0.00;98.00;;;;;;4993569;28;20455;-66
2024/01/28 04:04:43;;;;;;;10.23;4.27;;;0.00;98.00;;;;;;4993646;28;20467;-65
2024/01/28 04:07:11;;;;;;;10.10;4.00;;;0.00;98.00;;;;;;4993353;28;20487;-66
2024/01/28 04:09:39;;;;;;;10.17;3.60;;;-0.10;98.00;;;;;;4993401;28;20460;-65
2024/01/28 04:12:07;;;;;;;7.80;4.00;;;-0.20;98.00;;;;;;4992579;28;20888;-66
2024/01/28 04:14:34;;;;;;;8.50;4.20;;;-0.30;98.00;;;;;;4993607;28;20456;-66
2024/01/28 04:17:01;;;;;;;8.60;3.80;;;-0.40;98.00;;;;;;4993215;28;20590;-65
2024/01/28 04:19:28;;;;;;;10.97;4.20;;;-0.30;98.00;;;;;;4992459;28;20977;-65
2024/01/28 04:21:55;;;;;;;8.10;3.80;;;-0.30;98.00;;;;;;4993234;28;20463;-65
2024/01/28 04:24:24;;;;;;;7.40;3.37;;;-0.30;98.00;;;;;;4975966;28;20854;-65
2024/01/28 04:26:53;;;;;;;9.13;4.23;;;-0.40;98.00;;;;;;4992929;28;20483;-65
2024/01/28 04:29:20;;;;;;;9.60;4.37;;;-0.40;98.00;;;;;;4992815;28;20467;-65
2024/01/28 04:31:47;;;;;;;10.97;4.57;;;-0.60;98.00;;;;;;4993070;28;20860;-66
2024/01/28 04:34:14;;;;;;;9.27;4.03;;;-0.60;98.00;;;;;;4992338;28;20461;-66
2024/01/28 04:36:41;;;;;;;8.80;3.93;;;-0.50;98.00;;;;;;4992912;28;20455;-65
2024/01/28 04:39:09;;;;;;;9.33;4.47;;;-0.50;98.00;;;;;;4992741;28;20463;-66
2024/01/28 04:41:37;;;;;;;15.97;4.60;;;-0.60;98.00;;;;;;4992842;28;20453;-65
2024/01/28 04:44:04;;;;;;;8.20;4.20;;;-0.70;98.00;;;;;;4992595;28;20809;-65
2024/01/28 04:46:32;;;;;;;8.03;4.53;;;-0.70;98.00;;;;;;4975137;28;20542;-65
2024/01/28 04:49:00;;;;;;;8.47;4.20;;;-0.80;98.00;;;;;;4991816;28;20451;-65
2024/01/28 04:51:30;;;;;;;10.03;4.17;;;-0.90;98.00;;;;;;4992257;28;20558;-66
2024/01/28 04:53:58;;;;;;;8.80;4.23;;;-0.90;98.00;;;;;;4991611;28;20934;-65
2024/01/28 04:56:26;;;;;;;9.13;4.40;;;-1.10;98.00;;;;;;4992548;28;20469;-65
2024/01/28 04:58:54;;;;;;;11.70;4.27;;;-1.10;98.00;;;;;;4992319;28;20971;-65
2024/01/28 05:01:22;;;;;;;13.03;4.83;;;-1.10;98.00;;;;;;4992396;28;20478;-65
2024/01/28 05:03:49;;;;;;;10.83;4.33;;;-1.10;98.00;;;;;;4975176;28;21143;-65
2024/01/28 05:06:16;;;;;;;8.87;4.57;;;-1.10;98.00;;;;;;4992277;28;20800;-65
2024/01/28 05:08:43;;;;;;;12.33;5.03;;;-1.00;98.00;;;;;;4992297;28;20466;-65
2024/01/28 05:11:11;;;;;;;9.37;4.17;;;-1.10;98.00;;;;;;4992158;28;20459;-65
2024/01/28 05:13:38;;;;;;;9.27;4.60;;;-1.10;98.00;;;;;;4992386;28;20458;-66
2024/01/28 05:16:07;;;;;;;7.70;4.17;;;-1.20;98.00;;;;;;4992121;28;20454;-65
2024/01/28 05:18:34;;;;;;;16.20;4.73;;;-1.10;98.00;;;;;;4992160;28;20493;-65
2024/01/28 05:21:00;;;;;;;9.37;4.43;;;-1.10;98.00;;;;;;4992008;28;20949;-65
2024/01/28 05:23:27;;;;;;;11.57;5.20;;;-1.10;98.00;;;;;;4992056;28;20494;-65
2024/01/28 05:25:54;;;;;;;7.27;4.17;;;-1.20;98.00;;;;;;4992300;28;20455;-66
2024/01/28 05:28:21;;;;;;;12.37;5.00;;;-1.10;98.00;;;;;;4992096;28;20985;-65
2024/01/28 05:30:48;;;;;;;9.70;4.60;;;-1.10;98.00;;;;;;4974777;28;20463;-65
2024/01/28 05:33:17;;;;;;;10.43;4.60;;;-1.10;98.00;;;;;;4991387;28;20462;-65
2024/01/28 05:35:44;;;;;;;11.47;4.50;;;-1.10;98.00;;;;;;4991567;28;20942;-65
2024/01/28 05:38:13;;;;;;;13.50;3.87;;;-1.10;98.00;;;;;;4992090;28;20795;-65
2024/01/28 05:40:41;;;;;;;10.10;4.30;;;-1.30;98.00;;;;;;4992150;28;20520;-65
2024/01/28 05:43:08;;;;;;;6.73;3.90;;;-1.30;98.00;;;;;;4992090;28;20467;-65
2024/01/28 05:45:37;;;;;;;8.47;4.10;;;-1.20;98.00;;;;;;4991943;28;20889;-65
2024/01/28 05:48:04;;;;;;;12.60;5.30;;;-1.10;98.00;;;;;;4991700;28;21016;-66
2024/01/28 05:50:33;;;;;;;9.07;4.30;;;-1.10;98.00;;;;;;4991864;28;20633;-65
2024/01/28 05:53:00;;;;;;;14.60;4.57;;;-1.20;98.00;;;;;;4991048;28;20456;-65
2024/01/28 05:55:27;;;;;;;12.00;4.30;;;-1.30;98.00;;;;;;4991746;28;20455;-65
2024/01/28 05:57:54;;;;;;;9.53;4.60;;;-1.40;98.00;;;;;;4991831;28;20451;-65
2024/01/28 06:00:22;;;;;;;9.50;4.53;;;-1.30;98.00;;;;;;4991585;28;20471;-65
2024/01/28 06:02:49;;;;;;;8.63;3.97;;;-1.30;98.00;;;;;;4991561;28;20821;-65
2024/01/28 06:05:16;;;;;;;9.03;4.13;;;-1.30;98.00;;;;;;4991484;28;20869;-65
2024/01/28 06:07:44;;;;;;;7.40;3.53;;;-1.20;98.00;;;;;;4991288;28;20493;-66
2024/01/28 06:10:11;;;;;;;12.27;4.10;;;-1.10;98.00;;;;;;4991302;28;20487;-65
2024/01/28 06:12:38;;;;;;;9.90;4.10;;;-1.00;98.00;;;;;;4991389;28;20470;-65
2024/01/28 06:15:08;;;;;;;6.47;3.83;;;-0.90;98.00;;;;;;4991102;28;20961;-66
2024/01/28 06:17:36;;;;;;;8.00;3.60;;;-0.90;98.00;;;;;;4991254;28;20538;-66
2024/01/28 06:20:05;;;;;;;12.47;4.00;;;-0.90;98.00;;;;;;4990019;28;20834;-65
2024/01/28 06:22:32;;;;;;;9.80;3.93;;;-0.90;98.00;;;;;;4991001;28;20455;-65
2024/01/28 06:25:02;;;;;;;8.77;4.27;;;-0.90;98.00;;;;;;4989834;28;20459;-65
2024/01/28 06:27:29;;;;;;;9.90;3.80;;;-0.90;98.00;;;;;;4991009;28;20531;-66
2024/01/28 06:29:56;;;;;;;10.50;4.23;;;-0.90;98.00;;;;;;4991443;28;20472;-65
2024/01/28 06:32:24;;;;;;;9.73;4.17;;;-1.10;98.00;;;;;;4992042;28;20526;-65
2024/01/28 06:34:51;;;;;;;8.30;4.07;;;-1.20;98.00;;;;;;4991863;28;20502;-66
2024/01/28 06:37:18;;;;;;;9.63;4.20;;;-1.20;98.00;;;;;;4991847;28;20504;-66
2024/01/28 06:39:49;;;;;;;6.50;3.67;;;-1.20;98.00;;;;;;4990721;28;20468;-65
2024/01/28 06:42:18;;;;;;;8.80;4.10;;;-1.30;98.00;;;;;;4992040;28;20484;-65
2024/01/28 06:44:46;;;;;;;8.67;4.43;;;-1.30;98.00;;;;;;4994901;28;20541;-65
2024/01/28 06:47:15;;;;;;;11.50;4.50;;;-1.30;98.00;;;;;;4994891;28;20487;-66
2024/01/28 06:49:42;;;;;;;7.73;3.50;;;-1.30;98.00;;;;;;4995215;28;20466;-65
2024/01/28 06:52:09;;;;;;;7.27;3.73;;;-1.30;98.00;;;;;;4994203;28;20545;-65
2024/01/28 06:54:40;;;;;;;8.03;3.40;;;-1.30;98.00;;;;;;4994663;28;20857;-65
2024/01/28 06:57:07;;;;;;;10.73;3.50;;;-1.20;98.00;;;;;;4994877;28;20872;-65
2024/01/28 06:59:36;;;;;;;11.20;4.47;;;-1.20;98.00;;;;;;4994820;28;20527;-67
2024/01/28 07:02:03;;;;;;;8.90;4.07;;;-1.10;98.00;;;;;;4996056;28;20873;-79
2024/01/28 07:04:30;;;;;;;8.80;4.03;;;-1.00;98.00;;;;;;4996668;28;20865;-77
2024/01/28 07:06:57;;;;;;;7.37;3.70;;;-1.00;98.00;;;;;;4996443;28;20458;-79
2024/01/28 07:09:24;;;;;;;7.87;3.80;;;-1.00;98.00;;;;;;4994918;28;20534;-77
2024/01/28 07:11:52;;;;;;;7.80;3.83;;;-1.00;98.00;;;;;;4994289;28;20455;-78
2024/01/28 07:14:19;;;;;;;9.60;4.00;;;-1.10;98.00;;;;;;4993238;28;20867;-78
2024/01/28 07:16:47;;;;;;;7.43;3.90;;;-1.10;98.00;;;;;;4994930;28;20964;-78
2024/01/28 07:19:14;;;;;;;12.20;3.50;;;-1.00;98.00;;;;;;4994642;28;20836;-78
2024/01/28 07:21:41;;;;;;;9.27;4.53;;;-1.00;98.00;;;;;;4994601;28;20467;-74
2024/01/28 07:24:09;;;;;;;18.80;7.43;;;-1.10;98.00;;;;;;4993271;28;20455;-78
2024/01/28 07:26:36;;;;;;;17.40;7.37;;;-1.00;98.00;;;;;;4992904;28;20554;-76
2024/01/28 07:29:03;;;;;;;9.30;4.47;;;-1.00;98.00;;;;;;4994352;28;20495;-77
2024/01/28 07:31:30;;;;;;;7.83;4.10;;;-1.10;98.00;;;;;;4994436;28;20516;-76
2024/01/28 07:33:59;;;;;;;8.03;4.20;;;-1.00;98.00;;;;;;4994436;28;20459;-76
2024/01/28 07:36:26;;;;;;;9.80;4.30;;;-0.90;98.00;;;;;;4994632;28;20468;-76
2024/01/28 07:38:53;;;;;;;10.37;4.83;;;-0.90;98.00;;;;;;4994442;28;20455;-74
2024/01/28 07:41:20;;;;;;;10.47;4.00;;;-1.00;98.00;;;;;;4994275;28;20474;-75
2024/01/28 07:43:47;;;;;;;7.93;4.33;;;-1.00;98.00;;;;;;4994078;28;20451;-75
2024/01/28 07:46:14;;;;;;;7.17;3.77;;;-1.10;98.00;;;;;;4994068;28;20456;-73
2024/01/28 07:48:43;;;;;;;6.87;3.73;;;-1.10;98.00;;;;;;4993845;28;20898;-76
2024/01/28 07:51:11;;;;;;;8.67;4.07;;;-1.10;98.00;;;;;;4993933;28;20557;-76
2024/01/28 07:53:38;;;;;;;9.00;3.97;;;-1.00;98.00;;;;;;4992683;28;20460;-75
2024/01/28 07:56:06;;;;;;;9.30;4.20;;;-1.10;98.00;;;;;;4993990;28;20463;-74
2024/01/28 07:58:33;;;;;;;9.67;4.13;;;-1.10;98.00;;;;;;4993810;28;20566;-74
2024/01/28 08:01:07;;;;;;;8.13;4.00;;;-1.00;98.00;;;;;;4993193;28;20456;-73
2024/01/28 08:03:34;;;;;;;10.93;4.40;;;-0.90;98.00;;;;;;4993748;28;20468;-74
2024/01/28 08:06:01;;;;;;;22.53;9.17;;;-1.00;98.00;;;;;;4993800;28;20455;-76
2024/01/28 08:08:30;;;;;;;26.00;8.50;;;-0.90;98.00;;;;;;4993527;28;20483;-73
2024/01/28 08:10:57;;;;;;;22.43;7.80;;;-0.80;98.00;;;;;;4993725;28;20451;-74
2024/01/28 08:13:33;;;;;;;11.53;5.50;;;-0.70;98.00;;;;;;4993725;28;20467;-75
2024/01/28 08:16:03;;;;;;;8.90;4.53;;;-0.70;98.00;;;;;;4993604;28;20483;-78
2024/01/28 08:18:30;;;;;;;13.57;5.17;;;-0.60;98.00;;;;;;4993315;28;20531;-75
2024/01/28 08:20:57;;;;;;;10.03;4.97;;;-0.50;98.00;;;;;;4993321;28;20462;-77
2024/01/28 08:23:33;;;;;;;11.33;4.77;;;-0.50;98.00;;;;;;4993232;28;20455;-76
2024/01/28 08:26:01;;;;;;;9.10;4.40;;;-0.40;98.00;;;;;;4993507;28;20447;-74
2024/01/28 08:28:28;;;;;;;10.10;4.67;;;-0.40;98.00;;;;;;4993085;28;20891;-76
2024/01/28 08:30:55;;;;;;;12.77;5.50;;;-0.40;98.00;;;;;;4993089;28;20468;-74
2024/01/28 08:33:22;;;;;;;16.93;5.97;;;-0.40;98.00;;;;;;4993394;28;20463;-73
2024/01/28 08:35:49;;;;;;;17.33;6.43;;;-0.40;98.00;;;;;;4992477;28;20490;-76
2024/01/28 08:38:16;;;;;;;16.93;5.53;;;-0.30;98.00;;;;;;4992394;28;20451;-76
2024/01/28 08:40:44;;;;;;;11.90;5.33;;;-0.20;98.00;;;;;;4992533;28;20455;-74
2024/01/28 08:43:13;;;;;;;8.27;4.57;;;-0.20;98.00;;;;;;4992890;28;20455;-75
2024/01/28 08:45:43;;;;;;;8.77;4.73;;;-0.10;98.00;;;;;;4992919;28;20523;-74
2024/01/28 08:48:10;;;;;;;9.13;4.37;;;0.00;98.00;;;;;;4991570;28;20657;-75
2024/01/28 08:50:38;;;;;;;9.33;4.33;;;0.10;98.00;;;;;;4993029;28;20460;-73
2024/01/28 08:53:05;;;;;;;10.73;4.47;;;0.20;98.00;;;;;;4992982;28;20482;-75
2024/01/28 08:55:33;;;;;;;8.40;3.83;;;0.20;98.00;;;;;;4992687;28;20771;-75
2024/01/28 08:58:00;;;;;;;8.90;4.00;;;0.30;98.00;;;;;;4992834;28;20578;-77
2024/01/28 09:00:29;;;;;;;8.20;4.10;;;0.30;98.00;;;;;;4991990;28;20493;-75
2024/01/28 09:02:56;;;;;;;6.60;3.30;;;0.30;98.00;;;;;;4992959;28;20471;-76
2024/01/28 09:05:24;;;;;;;10.60;4.27;;;0.40;98.00;;;;;;4989665;28;20462;-75
2024/01/28 09:07:52;;;;;;;7.47;3.73;;;0.40;98.00;;;;;;4991365;28;20907;-76
2024/01/28 09:10:20;;;;;;;9.53;3.90;;;0.50;98.00;;;;;;4992509;28;20466;-75
2024/01/28 09:12:47;;;;;;;9.57;4.20;;;0.60;98.00;;;;;;4992648;28;20547;-76
2024/01/28 09:15:14;;;;;;;9.57;4.27;;;0.70;98.00;;;;;;4992845;28;20460;-75
2024/01/28 09:17:42;;;;;;;8.43;4.10;;;0.80;98.00;;;;;;5230381;22;20482;-75
2024/01/28 09:20:10;;;;;;;8.90;3.80;;;1.10;98.00;;;;;;5051625;28;20453;-73
2024/01/28 09:22:37;;;;;;;8.07;4.30;;;1.10;98.00;;;;;;5051853;28;20819;-75
2024/01/28 09:25:04;;;;;;;7.80;3.80;;;1.20;98.00;;;;;;5051739;28;20453;-77
2024/01/28 09:27:32;;;;;;;6.87;3.70;;;1.20;98.00;;;;;;5051433;28;20943;-74
2024/01/28 09:29:59;;;;;;;8.87;4.10;;;1.40;98.00;;;;;;5051411;28;20485;-77
2024/01/28 09:32:26;;;;;;;10.17;4.93;;;1.40;98.00;;;;;;5032642;28;20497;-73
2024/01/28 09:34:55;;;;;;;21.47;7.90;;;1.60;98.00;;;;;;5033421;28;20479;-77
2024/01/28 09:37:22;;;;;;;19.93;8.50;;;1.90;98.00;;;;;;5050734;28;20458;-73
2024/01/28 09:39:49;;;;;;;19.20;8.10;;;1.80;98.00;;;;;;5051135;28;20481;-77
2024/01/28 09:42:22;;;;;;;15.43;7.00;;;1.80;98.00;;;;;;5050793;28;20446;-73
2024/01/28 09:44:50;;;;;;;21.27;8.70;;;2.00;98.00;;;;;;5050873;28;20943;-78
2024/01/28 09:47:19;;;;;;;23.33;9.10;;;1.90;98.00;;;;;;5051044;28;20449;-74
2024/01/28 09:49:47;;;;;;;19.50;8.23;;;2.00;98.00;;;;;;5050913;28;20497;-75
2024/01/28 09:52:16;;;;;;;19.83;7.73;;;2.10;98.00;;;;;;5051327;28;20477;-74
2024/01/28 09:54:44;;;;;;;15.43;7.00;;;2.10;98.00;;;;;;5051049;28;20449;-76
2024/01/28 09:57:12;;;;;;;15.33;6.27;;;2.10;98.00;;;;;;5050993;28;20458;-74
2024/01/28 09:59:39;;;;;;;14.40;6.20;;;2.10;98.00;;;;;;5050825;28;20456;-73
2024/01/28 10:02:07;;;;;;;15.53;6.23;;;2.20;98.00;;;;;;5050200;28;20450;-76
2024/01/28 10:04:34;;;;;;;17.20;6.13;;;2.30;98.00;;;;;;5050801;28;20446;-74
2024/01/28 10:07:02;;;;;;;14.47;6.60;;;2.40;98.00;;;;;;5051864;28;20458;-76
2024/01/28 10:09:31;;;;;;;15.80;5.97;;;2.50;98.00;;;;;;5051737;28;20581;-73
2024/01/28 10:12:00;;;;;;;14.53;6.23;;;2.70;98.00;;;;;;5051695;28;20533;-77
2024/01/28 10:14:27;;;;;;;14.03;6.47;;;2.80;98.00;;;;;;5050372;28;20493;-77
2024/01/28 10:16:55;;;;;;;13.60;5.70;;;2.90;98.00;;;;;;5052242;28;20465;-74
2024/01/28 10:19:22;;;;;;;12.50;5.73;;;3.00;98.00;;;;;;5054470;28;21019;-76
2024/01/28 10:21:49;;;;;;;11.80;5.37;;;3.00;98.00;;;;;;5055819;28;20454;-76
2024/01/28 10:24:19;;;;;;;11.73;5.80;;;3.10;98.00;;;;;;5055427;28;20452;-74
2024/01/28 10:26:48;;;;;;;14.03;5.03;;;3.10;98.00;;;;;;5055604;28;20460;-76
2024/01/28 10:29:17;;;;;;;10.00;5.17;;;3.30;98.00;;;;;;5055432;28;20496;-76
2024/01/28 10:31:44;;;;;;;10.43;4.73;;;3.50;98.00;;;;;;5055796;28;21018;-77
2024/01/28 10:34:11;;;;;;;12.80;5.93;;;3.60;98.00;;;;;;5055384;28;20456;-76
2024/01/28 10:36:44;;;;;;;10.53;5.50;;;3.70;98.00;;;;;;5055632;28;20462;-75
2024/01/28 10:39:16;;;;;;;11.83;5.60;;;4.00;98.00;;;;;;5054027;28;20456;-73
2024/01/28 10:41:44;;;;;;;10.40;5.73;;;4.10;98.00;;;;;;5055098;28;20441;-75
2024/01/28 10:44:15;;;;;;;11.60;5.53;;;4.20;98.00;;;;;;5055325;28;20820;-77
2024/01/28 10:46:44;;;;;;;10.80;5.07;;;4.30;98.00;;;;;;5054914;28;20488;-76
2024/01/28 10:49:12;;;;;;;11.10;5.40;;;4.50;98.00;;;;;;5054768;28;21048;-76
2024/01/28 10:51:40;;;;;;;10.67;4.90;;;4.70;98.00;;;;;;5055497;28;20460;-75
2024/01/28 10:54:09;;;;;;;11.47;5.43;;;4.90;98.00;;;;;;5054974;28;20442;-77
2024/01/28 10:56:38;;;;;;;11.47;4.87;;;5.00;98.00;;;;;;5054903;28;20535;-74
2024/01/28 10:59:05;;;;;;;10.57;4.80;;;5.20;98.00;;;;;;5054587;28;20904;-78
2024/01/28 11:01:35;;;;;;;11.63;4.80;;;5.30;98.00;;;;;;5055278;28;20450;-77
2024/01/28 11:04:03;;;;;;;8.97;4.70;;;5.50;98.00;;;;;;5055108;28;20452;-76
2024/01/28 11:06:31;;;;;;;7.23;4.43;;;5.70;98.00;;;;;;5054857;28;20443;-79
2024/01/28 11:08:59;;;;;;;8.20;4.40;;;5.80;98.00;;;;;;5055059;28;20516;-78
2024/01/28 11:11:27;;;;;;;13.30;5.47;;;6.00;98.00;;;;;;5054556;28;20470;-78
2024/01/28 11:13:56;;;;;;;8.40;4.40;;;6.20;98.00;;;;;;5054382;28;20860;-74
2024/01/28 11:16:23;;;;;;;9.43;4.43;;;6.40;98.00;;;;;;5053984;28;21184;-76
2024/01/28 11:19:06;;;;;;;7.63;4.20;;;6.60;98.00;;;;;;5054438;28;20455;-75
2024/01/28 11:21:34;;;;;;;12.73;4.80;;;6.80;98.00;;;;;;5053724;28;20454;-75
2024/01/28 11:24:06;;;;;;;11.37;5.30;;;7.00;98.00;;;;;;5054459;28;20500;-78
2024/01/28 11:26:36;;;;;;;8.30;4.73;;;7.20;98.00;;;;;;5054548;28;20493;-75
2024/01/28 11:29:08;;;;;;;9.30;5.40;;;7.40;98.00;;;;;;5053643;28;20511;-74
2024/01/28 11:31:38;;;;;;;8.57;4.70;;;7.60;98.00;;;;;;5054123;28;20458;-75
2024/01/28 11:34:17;;;;;;;8.33;4.40;;;7.90;98.00;;;;;;5053920;28;20466;-74
2024/01/28 11:36:45;;;;;;;8.23;4.13;;;8.10;98.00;;;;;;5054273;28;20457;-75
2024/01/28 11:39:13;;;;;;;9.60;4.53;;;8.30;98.00;;;;;;5054156;28;20977;-76
2024/01/28 11:41:43;;;;;;;7.27;4.00;;;8.50;98.00;;;;;;5054117;28;20447;-73
2024/01/28 11:44:11;;;;;;;7.30;3.80;;;8.80;98.00;;;;;;5053731;28;20454;-74
2024/01/28 11:46:39;;;;;;;8.13;3.90;;;9.10;98.00;;;;;;5053356;28;20817;-74
2024/01/28 11:49:07;;;;;;;8.67;3.77;;;9.40;98.00;;;;;;5036375;28;20998;-75
2024/01/28 11:51:36;;;;;;;6.97;3.63;;;9.60;98.00;;;;;;5053627;28;20458;-77
2024/01/28 11:54:05;;;;;;;5.80;3.20;;;9.90;98.00;;;;;;5053441;28;20454;-77
2024/01/28 11:56:39;;;;;;;8.30;3.80;;;10.30;98.00;;;;;;5053744;28;20454;-74
2024/01/28 11:59:07;;;;;;;6.57;3.63;;;10.60;98.00;;;;;;5053262;28;20464;-74
2024/01/28 12:01:35;;;;;;;5.70;3.43;;;10.90;98.00;;;;;;5053878;28;20450;-75
2024/01/28 12:04:05;;;;;;;5.30;3.20;;;11.10;98.00;;;;;;5053571;28;20449;-77
2024/01/28 12:06:33;;;;;;;7.40;3.50;;;11.40;98.00;;;;;;5052674;28;20449;-74
2024/01/28 12:09:02;;;;;;;5.83;3.50;;;11.70;98.00;;;;;;5052560;28;20548;-73
2024/01/28 12:11:31;;;;;;;6.07;3.40;;;12.10;98.00;;;;;;5053646;28;20457;-73
2024/01/28 12:14:01;;;;;;;5.97;3.07;;;12.40;98.00;;;;;;5053794;28;21007;-73
2024/01/28 12:16:28;;;;;;;4.67;2.87;;;12.60;98.00;;;;;;5053520;28;20495;-77
2024/01/28 12:18:56;;;;;;;4.40;3.00;;;12.70;98.00;;;;;;5053481;28;20461;-76
2024/01/28 12:21:25;;;;;;;5.60;3.27;;;12.90;98.00;;;;;;5053362;28;20917;-75
2024/01/28 12:23:54;;;;;;;5.67;3.00;;;13.10;98.00;;;;;;5053291;28;20467;-74
2024/01/28 12:26:22;;;;;;;4.47;3.20;;;13.20;98.00;;;;;;5053450;28;20446;-76
2024/01/28 12:28:52;;;;;;;6.30;3.00;;;13.40;98.00;;;;;;5053400;28;20828;-77
2024/01/28 12:31:20;;;;;;;5.73;3.40;;;13.50;98.00;;;;;;5053385;28;20456;-74
2024/01/28 12:33:47;;;;;;;6.80;3.80;;;13.70;98.00;;;;;;5053208;28;20494;-73
2024/01/28 12:36:14;;;;;;;5.30;3.13;;;14.00;98.00;;;;;;5052990;28;20450;-74
2024/01/28 12:38:42;;;;;;;4.90;3.20;;;14.20;98.00;;;;;;5052573;28;20463;-75
2024/01/28 12:41:10;;;;;;;8.53;3.37;;;14.40;98.00;;;;;;5052418;28;20462;-74
2024/01/28 12:43:40;;;;;;;5.93;3.60;;;14.50;96.50;;;;;;5053295;28;20453;-76
2024/01/28 12:46:08;;;;;;;6.77;3.80;;;14.70;97.30;;;;;;5052992;28;20497;-74
2024/01/28 12:48:35;;;;;;;5.57;3.30;;;14.90;98.00;;;;;;5051846;28;20445;-75
2024/01/28 12:51:02;;;;;;;5.33;3.10;;;15.10;98.00;;;;;;5052871;28;20489;-75